Time;durP1;ratioP1;P1;durP2;ratioP2;P2;SDS_P1;SDS_P2;PMS_P1;PMS_P2;Temp;Humidity;BMP_temperature;BMP_pressure;BME280_temperature;BME280_humidity;BME280_pressure;Samples;Min_cycle;Max_cycle;Signal;HPM_P1;HPM_P2
2023/12/17 00:02:12;;;;;;;16.60;9.80;;;;;;;3.10;100.00;101776.23;108113;1256;60427;-70
2023/12/17 00:04:40;;;;;;;15.90;10.10;;;;;;;3.11;100.00;101771.17;107974;1257;73818;-70
2023/12/17 00:07:08;;;;;;;15.90;9.10;;;;;;;3.09;100.00;101769.92;108042;1257;71429;-69
2023/12/17 00:09:35;;;;;;;16.70;9.70;;;;;;;3.08;100.00;101772.58;108001;1256;72696;-70
2023/12/17 00:12:03;;;;;;;15.50;9.80;;;;;;;3.08;100.00;101776.23;108091;1256;60880;-70
2023/12/17 00:14:32;;;;;;;16.20;9.60;;;;;;;3.10;100.00;101771.23;107981;1255;59490;-69
2023/12/17 00:17:01;;;;;;;16.10;9.20;;;;;;;3.12;100.00;101765.17;108090;1256;73858;-69
2023/12/17 00:19:29;;;;;;;14.90;9.30;;;;;;;3.12;100.00;101762.77;108084;1257;71588;-69
2023/12/17 00:21:57;;;;;;;14.60;9.60;;;;;;;3.12;100.00;101756.69;108097;1256;71434;-68
2023/12/17 00:24:25;;;;;;;16.60;9.50;;;;;;;3.13;100.00;101757.84;108056;1257;60457;-68
2023/12/17 00:26:54;;;;;;;17.80;9.90;;;;;;;3.14;100.00;101754.65;108069;1256;60194;-68
2023/12/17 00:29:23;;;;;;;16.50;10.10;;;;;;;3.15;100.00;101748.36;107983;1260;72633;-69
2023/12/17 00:31:51;;;;;;;15.60;9.90;;;;;;;3.16;100.00;101743.63;107914;1256;72770;-69
2023/12/17 00:34:26;;;;;;;16.70;10.00;;;;;;;3.16;100.00;101741.68;107928;1257;71405;-69
2023/12/17 00:36:57;;;;;;;16.10;10.30;;;;;;;3.15;100.00;101737.07;107908;1257;60572;-69
2023/12/17 00:39:37;;;;;;;14.80;9.90;;;;;;;3.14;100.00;101737.27;107736;1255;60399;-69
2023/12/17 00:42:06;;;;;;;16.20;10.20;;;;;;;3.14;100.00;101736.45;107991;1256;73700;-69
2023/12/17 00:44:40;;;;;;;19.50;10.70;;;;;;;3.15;100.00;101743.57;108027;1257;74679;-70
2023/12/17 00:47:21;;;;;;;17.50;10.90;;;;;;;3.13;100.00;101740.99;107801;1261;72667;-69
2023/12/17 00:49:49;;;;;;;17.90;10.70;;;;;;;3.12;100.00;101742.80;107863;1257;61785;-70
2023/12/17 00:52:19;;;;;;;16.50;10.70;;;;;;;3.12;100.00;101738.80;107927;1255;60344;-70
2023/12/17 00:54:51;;;;;;;19.10;10.90;;;;;;;3.12;100.00;101739.80;107918;1255;73858;-70
2023/12/17 00:57:19;;;;;;;21.10;11.00;;;;;;;3.14;100.00;101730.64;107968;1256;72715;-69
2023/12/17 00:59:49;;;;;;;17.30;10.60;;;;;;;3.14;100.00;101729.71;108118;1257;71026;-69
2023/12/17 01:02:16;;;;;;;19.20;10.60;;;;;;;3.13;100.00;101722.43;107999;1256;61118;-70
2023/12/17 01:04:44;;;;;;;19.50;11.40;;;;;;;3.14;100.00;101714.98;107959;1257;62035;-70
2023/12/17 01:07:12;;;;;;;20.20;11.60;;;;;;;3.17;100.00;101710.46;108053;1255;71591;-69
2023/12/17 01:09:39;;;;;;;20.90;11.50;;;;;;;3.18;100.00;101710.15;107989;1256;71540;-69
2023/12/17 01:12:07;;;;;;;21.50;12.10;;;;;;;3.17;100.00;101708.52;107949;1256;71518;-70
2023/12/17 01:14:35;;;;;;;22.80;12.70;;;;;;;3.16;100.00;101716.30;107929;1257;60995;-69
2023/12/17 01:17:03;;;;;;;20.30;12.60;;;;;;;3.14;100.00;101719.68;108072;1256;60629;-70
2023/12/17 01:19:34;;;;;;;20.10;12.30;;;;;;;3.14;100.00;101719.95;108006;1259;73570;-69
2023/12/17 01:22:02;;;;;;;19.10;11.30;;;;;;;3.13;100.00;101717.22;108459;1257;73097;-70
2023/12/17 01:24:29;;;;;;;21.10;12.50;;;;;;;3.13;100.00;101715.81;108053;1256;72555;-69
2023/12/17 01:26:58;;;;;;;19.50;12.20;;;;;;;3.13;100.00;101714.06;108106;1256;59295;-71
2023/12/17 01:29:25;;;;;;;18.70;11.70;;;;;;;3.12;100.00;101705.05;108026;1257;60313;-71
2023/12/17 01:31:54;;;;;;;19.40;11.30;;;;;;;3.12;100.00;101703.64;107965;1256;72996;-71
2023/12/17 01:34:22;;;;;;;21.20;11.80;;;;;;;3.11;100.00;101700.52;108133;1256;72514;-71
2023/12/17 01:36:50;;;;;;;19.30;12.00;;;;;;;3.11;100.00;101698.27;108085;1259;72442;-72
2023/12/17 01:39:17;;;;;;;19.10;11.70;;;;;;;3.11;100.00;101700.34;107998;1257;60904;-70
2023/12/17 01:41:45;;;;;;;21.60;12.30;;;;;;;3.13;100.00;101697.48;108063;1256;60353;-70
2023/12/17 01:44:13;;;;;;;19.70;11.50;;;;;;;3.14;100.00;101697.79;108050;1257;72576;-70
2023/12/17 01:46:40;;;;;;;21.50;12.60;;;;;;;3.14;100.00;101696.70;108069;1257;71698;-71
2023/12/17 01:49:09;;;;;;;22.50;11.80;;;;;;;3.12;100.00;101693.41;108105;1257;71421;-70
2023/12/17 01:51:37;;;;;;;22.10;12.80;;;;;;;3.10;100.00;101694.35;108019;1259;60981;-70
2023/12/17 01:54:05;;;;;;;21.90;12.70;;;;;;;3.09;100.00;101688.84;107893;1257;60290;-70
2023/12/17 01:56:32;;;;;;;23.20;13.40;;;;;;;3.09;100.00;101687.02;108037;1256;73893;-70
2023/12/17 01:59:01;;;;;;;23.30;13.50;;;;;;;3.14;100.00;101681.87;107816;1257;71450;-70
2023/12/17 02:01:28;;;;;;;21.70;12.30;;;;;;;3.27;100.00;101679.25;108040;1256;72427;-70
2023/12/17 02:03:57;;;;;;;21.70;13.20;;;;;;;3.29;100.00;101681.55;107950;1256;60326;-71
2023/12/17 02:06:24;;;;;;;23.00;13.10;;;;;;;3.29;100.00;101677.95;107853;1257;60010;-70
2023/12/17 02:08:52;;;;;;;21.10;12.70;;;;;;;3.31;100.00;101671.83;107921;1257;72449;-71
2023/12/17 02:11:20;;;;;;;19.30;12.70;;;;;;;3.29;100.00;101667.89;107715;1257;228174;-70
2023/12/17 02:13:47;;;;;;;26.50;14.00;;;;;;;3.31;100.00;101666.23;108090;1257;72669;-71
2023/12/17 02:16:15;;;;;;;20.50;12.30;;;;;;;3.30;100.00;101662.73;108101;1256;60931;-70
2023/12/17 02:18:42;;;;;;;23.40;13.30;;;;;;;3.31;100.00;101663.55;108055;1257;60345;-70
2023/12/17 02:21:10;;;;;;;23.30;13.50;;;;;;;3.28;100.00;101666.08;107851;1261;72663;-70
2023/12/17 02:23:38;;;;;;;22.10;13.60;;;;;;;3.26;100.00;101667.75;108072;1257;72655;-71
2023/12/17 02:26:05;;;;;;;25.30;14.70;;;;;;;3.24;100.00;101667.48;107976;1257;72679;-70
2023/12/17 02:28:33;;;;;;;22.50;14.20;;;;;;;3.24;100.00;101660.13;108044;1257;60914;-69
2023/12/17 02:31:00;;;;;;;20.00;12.60;;;;;;;3.24;100.00;101657.15;107986;1257;61140;-70
2023/12/17 02:33:28;;;;;;;23.80;13.30;;;;;;;3.25;100.00;101658.17;107941;1256;73876;-69
2023/12/17 02:35:56;;;;;;;25.00;14.60;;;;;;;3.28;100.00;101655.23;108040;1256;70471;-70
2023/12/17 02:38:24;;;;;;;25.60;14.30;;;;;;;3.29;100.00;101647.68;108045;1256;72671;-69
2023/12/17 02:40:51;;;;;;;23.90;13.20;;;;;;;3.31;100.00;101648.00;107943;1259;60524;-70
2023/12/17 02:43:19;;;;;;;22.30;14.10;;;;;;;3.22;100.00;101645.61;108045;1255;60431;-69
2023/12/17 02:45:46;;;;;;;25.70;13.90;;;;;;;3.19;100.00;101642.58;107922;1257;73827;-70
2023/12/17 02:48:14;;;;;;;25.00;13.40;;;;;;;3.19;100.00;101642.70;107988;1256;72702;-69
2023/12/17 02:50:42;;;;;;;24.40;13.20;;;;;;;3.22;100.00;101631.23;108103;1256;71841;-70
2023/12/17 02:53:09;;;;;;;23.10;13.10;;;;;;;3.25;100.00;101628.86;108096;1257;60849;-71
2023/12/17 02:55:37;;;;;;;21.70;13.50;;;;;;;3.26;100.00;101626.89;108073;1255;60316;-71
2023/12/17 02:58:05;;;;;;;25.90;14.90;;;;;;;3.29;100.00;101618.45;108097;1257;73832;-70
2023/12/17 03:00:33;;;;;;;26.60;14.50;;;;;;;3.30;100.00;101614.84;108056;1257;72749;-71
2023/12/17 03:03:00;;;;;;;28.60;15.70;;;;;;;3.29;100.00;101613.73;108036;1256;72779;-70
2023/12/17 03:05:28;;;;;;;23.80;15.30;;;;;;;3.30;100.00;101610.65;108075;1256;60265;-71
2023/12/17 03:07:56;;;;;;;23.40;14.50;;;;;;;3.32;100.00;101613.27;108103;1255;60214;-70
2023/12/17 03:10:23;;;;;;;23.40;14.30;;;;;;;3.37;100.00;101600.50;107993;1257;72707;-71
2023/12/17 03:12:51;;;;;;;21.60;13.50;;;;;;;3.40;100.00;101596.36;107925;1256;73632;-71
2023/12/17 03:15:18;;;;;;;22.70;13.50;;;;;;;3.42;100.00;101594.79;107955;1257;73044;-69
2023/12/17 03:17:46;;;;;;;24.10;13.60;;;;;;;3.43;100.00;101594.33;107996;1256;60842;-71
2023/12/17 03:20:14;;;;;;;23.30;14.30;;;;;;;3.46;100.00;101591.46;108144;1255;60545;-70
2023/12/17 03:22:41;;;;;;;23.20;14.20;;;;;;;3.47;100.00;101593.27;108124;1256;72575;-71
2023/12/17 03:25:09;;;;;;;25.80;14.40;;;;;;;3.46;100.00;101583.32;108031;1257;71432;-70
2023/12/17 03:27:37;;;;;;;25.30;14.10;;;;;;;3.46;100.00;101578.88;108039;1256;72710;-70
2023/12/17 03:30:06;;;;;;;24.20;14.10;;;;;;;3.47;100.00;101580.10;108037;1257;59699;-71
2023/12/17 03:32:34;;;;;;;21.60;13.50;;;;;;;3.50;100.00;101578.76;108132;1256;60357;-70
2023/12/17 03:35:02;;;;;;;22.20;13.50;;;;;;;3.53;100.00;101573.89;108057;1257;72643;-70
2023/12/17 03:37:29;;;;;;;24.20;13.90;;;;;;;3.55;100.00;101566.59;108071;1257;72760;-69
2023/12/17 03:39:57;;;;;;;21.10;13.00;;;;;;;3.52;100.00;101561.64;107978;1256;72776;-72
2023/12/17 03:42:24;;;;;;;24.00;14.20;;;;;;;3.56;100.00;101556.85;107916;1256;60370;-70
2023/12/17 03:44:52;;;;;;;23.70;13.00;;;;;;;3.55;100.00;101553.06;108032;1256;60332;-70
2023/12/17 03:47:25;;;;;;;23.20;13.50;;;;;;;3.59;100.00;101547.70;108032;1256;73901;-67
2023/12/17 03:50:00;;;;;;;21.20;13.60;;;;;;;3.61;100.00;101545.28;107818;1256;71447;-69
2023/12/17 03:52:41;;;;;;;21.30;12.80;;;;;;;3.64;100.00;101537.74;107984;1255;72451;-68
2023/12/17 03:55:42;;;;;;;23.00;13.50;;;;;;;3.66;100.00;101539.52;108008;1256;59685;-69
2023/12/17 03:58:52;;;;;;;20.80;13.00;;;;;;;3.68;100.00;101528.73;107998;1256;61064;-70
2023/12/17 04:01:49;;;;;;;18.50;12.40;;;;;;;3.69;100.00;101526.64;107909;1257;73872;-70
2023/12/17 04:04:30;;;;;;;21.50;13.70;;;;;;;3.72;100.00;101525.81;107808;1257;72721;-70
2023/12/17 04:07:30;;;;;;;20.20;13.10;;;;;;;3.72;100.00;101519.02;107937;1259;71451;-70
2023/12/17 04:10:08;;;;;;;21.20;12.90;;;;;;;3.74;100.00;101513.95;107874;1257;60513;-70
2023/12/17 04:12:50;;;;;;;20.30;12.00;;;;;;;3.73;100.00;101505.52;107883;1257;60319;-70
2023/12/17 04:15:30;;;;;;;19.70;12.60;;;;;;;3.73;100.00;101505.94;107871;1256;73879;-69
2023/12/17 04:18:17;;;;;;;20.10;12.50;;;;;;;3.72;100.00;101500.08;107825;1260;72133;-69
2023/12/17 04:21:01;;;;;;;20.20;12.50;;;;;;;3.73;100.00;101495.90;107889;1257;72784;-70
2023/12/17 04:23:49;;;;;;;19.50;13.10;;;;;;;3.72;100.00;101493.20;107819;1257;60463;-69
2023/12/17 04:26:37;;;;;;;20.20;11.90;;;;;;;3.73;100.00;101486.92;107904;1256;60584;-70
2023/12/17 04:29:38;;;;;;;19.90;12.90;;;;;;;3.75;100.00;101482.62;107847;1257;73134;-70
2023/12/17 04:32:39;;;;;;;21.00;13.30;;;;;;;3.75;100.00;101475.58;107869;1257;72713;-70
2023/12/17 04:35:54;;;;;;;18.20;12.10;;;;;;;3.73;100.00;101475.45;107882;1257;72683;-69
2023/12/17 04:38:23;;;;;;;22.70;13.20;;;;;;;3.69;100.00;101466.99;107946;1256;61252;-68
2023/12/17 04:40:51;;;;;;;20.80;13.30;;;;;;;3.67;100.00;101468.81;108043;1257;60366;-70
2023/12/17 04:43:20;;;;;;;19.50;13.00;;;;;;;3.68;100.00;101466.24;108100;1255;76048;-69
2023/12/17 04:45:47;;;;;;;21.20;12.60;;;;;;;3.67;100.00;101459.79;108085;1256;72691;-69
2023/12/17 04:48:15;;;;;;;19.20;12.60;;;;;;;3.68;100.00;101462.27;107888;1256;71489;-69
2023/12/17 04:50:43;;;;;;;19.20;12.40;;;;;;;3.69;100.00;101460.58;107996;1256;60290;-69
2023/12/17 04:53:10;;;;;;;21.00;13.20;;;;;;;3.69;100.00;101457.98;107914;1260;60383;-69
2023/12/17 04:55:40;;;;;;;19.80;12.50;;;;;;;3.67;100.00;101451.53;108066;1257;73787;-69
2023/12/17 04:58:08;;;;;;;19.70;12.30;;;;;;;3.68;100.00;101450.59;107928;1260;72952;-69
2023/12/17 05:00:35;;;;;;;20.90;13.30;;;;;;;3.67;100.00;101451.16;107959;1255;72467;-70
2023/12/17 05:03:05;;;;;;;20.80;12.50;;;;;;;3.67;100.00;101451.16;108006;1256;60508;-68
2023/12/17 05:05:36;;;;;;;20.00;13.10;;;;;;;3.67;100.00;101443.92;108056;1256;60973;-69
2023/12/17 05:08:04;;;;;;;20.40;12.50;;;;;;;3.66;100.00;101447.91;107977;1256;73785;-69
2023/12/17 05:10:32;;;;;;;21.60;14.50;;;;;;;3.66;100.00;101445.70;107998;1256;72703;-69
2023/12/17 05:12:59;;;;;;;21.50;13.10;;;;;;;3.64;100.00;101445.16;108144;1256;71362;-68
2023/12/17 05:15:27;;;;;;;26.40;15.10;;;;;;;3.64;100.00;101439.10;108019;1257;60530;-69
2023/12/17 05:17:55;;;;;;;23.70;15.00;;;;;;;3.64;100.00;101436.67;108010;1256;59290;-69
2023/12/17 05:20:23;;;;;;;24.20;15.20;;;;;;;3.63;100.00;101440.40;108111;1256;72603;-68
2023/12/17 05:22:50;;;;;;;23.90;14.90;;;;;;;3.64;100.00;101439.43;107851;1257;71786;-69
2023/12/17 05:25:18;;;;;;;22.50;13.60;;;;;;;3.65;100.00;101434.52;107918;1256;73555;-69
2023/12/17 05:27:46;;;;;;;21.50;14.00;;;;;;;3.66;100.00;101438.29;107859;1256;60303;-69
2023/12/17 05:30:13;;;;;;;22.80;14.20;;;;;;;3.64;100.00;101444.87;107878;1256;60324;-69
2023/12/17 05:32:41;;;;;;;21.80;14.40;;;;;;;3.62;100.00;101443.39;107994;1257;71697;-69
2023/12/17 05:35:10;;;;;;;22.70;14.30;;;;;;;3.60;100.00;101444.69;107962;1255;72485;-69
2023/12/17 05:37:37;;;;;;;21.20;14.00;;;;;;;3.59;100.00;101445.90;108021;1256;72682;-69
2023/12/17 05:40:06;;;;;;;21.20;13.40;;;;;;;3.57;100.00;101442.66;107998;1255;61400;-70
2023/12/17 05:42:36;;;;;;;22.00;14.60;;;;;;;3.55;100.00;101439.09;107977;1256;60242;-69
2023/12/17 05:45:04;;;;;;;22.70;14.60;;;;;;;3.54;100.00;101438.31;107994;1255;73891;-70
2023/12/17 05:47:31;;;;;;;19.90;13.20;;;;;;;3.53;100.00;101433.85;107921;1257;72584;-69
2023/12/17 05:49:59;;;;;;;22.60;13.60;;;;;;;3.54;100.00;101434.79;107990;1256;71457;-70
2023/12/17 05:52:27;;;;;;;20.00;13.10;;;;;;;3.53;100.00;101428.00;108012;1256;60421;-69
2023/12/17 05:54:55;;;;;;;20.20;13.10;;;;;;;3.53;100.00;101427.95;107889;1257;60341;-69
2023/12/17 05:57:22;;;;;;;21.70;13.30;;;;;;;3.56;100.00;101429.16;108113;1255;73916;-69
2023/12/17 05:59:50;;;;;;;20.30;12.80;;;;;;;3.57;100.00;101429.98;107907;1257;74246;-69
2023/12/17 06:02:18;;;;;;;21.30;13.80;;;;;;;3.58;100.00;101434.34;107798;1257;71391;-69
2023/12/17 06:04:45;;;;;;;21.60;14.10;;;;;;;3.60;100.00;101429.89;108007;1256;61132;-70
2023/12/17 06:07:13;;;;;;;23.80;13.80;;;;;;;3.62;100.00;101427.39;107912;1256;60430;-69
2023/12/17 06:09:40;;;;;;;19.50;13.20;;;;;;;3.62;100.00;101422.63;108109;1255;73830;-69
2023/12/17 06:12:08;;;;;;;20.60;13.70;;;;;;;3.62;100.00;101424.90;107955;1256;71584;-69
2023/12/17 06:14:36;;;;;;;23.50;14.00;;;;;;;3.63;100.00;101431.42;108034;1256;71229;-69
2023/12/17 06:17:05;;;;;;;20.80;13.60;;;;;;;3.65;100.00;101427.29;108082;1256;60874;-69
2023/12/17 06:19:33;;;;;;;21.80;14.00;;;;;;;3.67;100.00;101423.85;107997;1256;60460;-69
2023/12/17 06:22:02;;;;;;;22.90;13.80;;;;;;;3.70;100.00;101419.84;108071;1256;73865;-69
2023/12/17 06:24:30;;;;;;;23.20;14.10;;;;;;;3.70;100.00;101413.77;107973;1256;71437;-69
2023/12/17 06:26:57;;;;;;;24.40;14.80;;;;;;;3.72;100.00;101409.35;108121;1256;71805;-68
2023/12/17 06:29:25;;;;;;;23.80;15.50;;;;;;;3.75;100.00;101406.02;108090;1257;60888;-69
2023/12/17 06:31:53;;;;;;;22.40;13.80;;;;;;;3.76;100.00;101406.02;107997;1257;60511;-69
2023/12/17 06:34:20;;;;;;;20.10;12.90;;;;;;;3.78;100.00;101403.38;108170;1257;73881;-68
2023/12/17 06:36:48;;;;;;;23.10;13.20;;;;;;;3.81;100.00;101402.95;108167;1257;71474;-69
2023/12/17 06:39:16;;;;;;;23.10;13.70;;;;;;;3.85;100.00;101404.24;108080;1257;72645;-68
2023/12/17 06:41:44;;;;;;;23.30;15.20;;;;;;;3.81;100.00;101404.74;107885;1256;60902;-68
2023/12/17 06:44:12;;;;;;;26.90;15.20;;;;;;;3.80;100.00;101403.07;108119;1255;60987;-68
2023/12/17 06:46:40;;;;;;;23.30;14.70;;;;;;;3.80;100.00;101395.02;108097;1255;73789;-70
2023/12/17 06:49:07;;;;;;;25.00;15.00;;;;;;;3.81;100.00;101394.33;108159;1256;72904;-69
2023/12/17 06:51:42;;;;;;;21.90;14.80;;;;;;;3.81;100.00;101391.50;108131;1255;74709;-68
2023/12/17 06:54:10;;;;;;;24.30;15.20;;;;;;;3.82;100.00;101396.10;107999;1256;60892;-68
2023/12/17 06:56:46;;;;;;;26.20;15.70;;;;;;;3.83;100.00;101394.67;108136;1255;60441;-68
2023/12/17 06:59:22;;;;;;;25.40;15.20;;;;;;;3.82;100.00;101389.09;108271;1255;72586;-68
2023/12/17 07:01:50;;;;;;;26.30;16.50;;;;;;;3.83;100.00;101386.71;107999;1257;72491;-68
2023/12/17 07:04:20;;;;;;;23.40;15.60;;;;;;;3.84;100.00;101383.77;107940;1257;71219;-67
2023/12/17 07:06:47;;;;;;;24.50;15.50;;;;;;;3.83;100.00;101386.18;107883;1256;60415;-69
2023/12/17 07:09:15;;;;;;;24.70;15.50;;;;;;;3.83;100.00;101384.18;108024;1256;58852;-69
2023/12/17 07:11:43;;;;;;;25.20;15.50;;;;;;;3.84;100.00;101383.45;107971;1256;72622;-69
2023/12/17 07:14:10;;;;;;;24.00;14.60;;;;;;;3.84;100.00;101384.51;108011;1256;72883;-69
2023/12/17 07:16:38;;;;;;;24.70;15.80;;;;;;;3.83;100.00;101380.33;107947;1256;72656;-69
2023/12/17 07:19:06;;;;;;;26.80;15.80;;;;;;;3.84;100.00;101379.19;108080;1256;60876;-68
2023/12/17 07:21:34;;;;;;;23.70;14.90;;;;;;;3.84;100.00;101385.61;108010;1257;60344;-68
2023/12/17 07:24:01;;;;;;;23.60;15.30;;;;;;;3.84;100.00;101387.48;108099;1257;73895;-69
2023/12/17 07:26:29;;;;;;;28.30;15.90;;;;;;;3.83;100.00;101384.67;107925;1257;72728;-67
2023/12/17 07:28:57;;;;;;;25.20;15.90;;;;;;;3.84;100.00;101385.77;108121;1257;72722;-68
2023/12/17 07:31:24;;;;;;;25.70;16.60;;;;;;;3.85;100.00;101391.40;108114;1255;60878;-68
2023/12/17 07:33:52;;;;;;;23.60;15.60;;;;;;;3.84;100.00;101394.60;108012;1255;60527;-69
2023/12/17 07:36:20;;;;;;;25.10;14.10;;;;;;;3.83;100.00;101394.39;108126;1256;72714;-69
2023/12/17 07:38:48;;;;;;;22.00;15.40;;;;;;;3.83;100.00;101387.08;108000;1258;72760;-69
2023/12/17 07:41:15;;;;;;;23.30;14.70;;;;;;;3.86;100.00;101388.23;108019;1257;72704;-69
2023/12/17 07:43:43;;;;;;;20.90;13.70;;;;;;;3.87;100.00;101387.35;108104;1256;60966;-69
2023/12/17 07:46:11;;;;;;;22.30;15.20;;;;;;;3.88;100.00;101387.77;108006;1256;59990;-69
2023/12/17 07:48:39;;;;;;;19.80;12.90;;;;;;;3.89;100.00;101377.65;108101;1256;74756;-68
2023/12/17 07:51:07;;;;;;;18.70;13.10;;;;;;;3.89;100.00;101375.17;107973;1255;72797;-68
2023/12/17 07:53:35;;;;;;;20.40;13.10;;;;;;;3.92;100.00;101367.21;107944;1256;72508;-69
2023/12/17 07:56:03;;;;;;;17.70;12.40;;;;;;;3.93;100.00;101372.35;108119;1260;61122;-67
2023/12/17 07:58:31;;;;;;;19.70;13.00;;;;;;;3.88;100.00;101370.33;107921;1255;60099;-69
2023/12/17 08:00:59;;;;;;;20.20;12.90;;;;;;;3.85;100.00;101375.86;107948;1259;73387;-68
2023/12/17 08:03:27;;;;;;;20.90;13.50;;;;;;;3.84;100.00;101374.68;108011;1257;72471;-68
2023/12/17 08:05:55;;;;;;;19.70;13.10;;;;;;;3.84;100.00;101376.70;108339;1256;72481;-68
2023/12/17 08:08:22;;;;;;;20.80;12.50;;;;;;;3.81;100.00;101375.66;107947;1256;61183;-68
2023/12/17 08:10:50;;;;;;;17.80;10.90;;;;;;;3.81;100.00;101374.98;107964;1255;61077;-67
2023/12/17 08:13:18;;;;;;;19.30;12.60;;;;;;;3.80;100.00;101377.50;108023;1256;73492;-68
2023/12/17 08:15:46;;;;;;;17.90;11.80;;;;;;;3.83;100.00;101379.84;107894;1255;71472;-68
2023/12/17 08:18:14;;;;;;;18.40;11.40;;;;;;;3.86;100.00;101378.06;107948;1256;70532;-68
2023/12/17 08:20:42;;;;;;;19.90;13.20;;;;;;;3.90;100.00;101381.21;108020;1256;61094;-70
2023/12/17 08:23:10;;;;;;;16.40;11.50;;;;;;;3.92;100.00;101374.58;108063;1257;61167;-69
2023/12/17 08:25:38;;;;;;;18.10;12.20;;;;;;;3.95;100.00;101385.90;108018;1259;74654;-68
2023/12/17 08:28:06;;;;;;;17.40;11.40;;;;;;;3.97;100.00;101384.36;108053;1257;71417;-69
2023/12/17 08:30:40;;;;;;;17.80;11.80;;;;;;;3.97;100.00;101368.30;107971;1256;71384;-69
2023/12/17 08:33:07;;;;;;;19.30;12.00;;;;;;;3.99;100.00;101367.55;107955;1256;61203;-68
2023/12/17 08:35:37;;;;;;;16.70;11.60;;;;;;;4.04;100.00;101366.11;108074;1257;59102;-69
2023/12/17 08:38:08;;;;;;;16.50;11.40;;;;;;;4.05;100.00;101364.69;108043;1257;74616;-68
2023/12/17 08:40:37;;;;;;;16.50;11.70;;;;;;;4.07;100.00;101362.39;107934;1256;71433;-68
2023/12/17 08:43:09;;;;;;;16.50;11.60;;;;;;;4.08;100.00;101359.95;107947;1256;72701;-69
2023/12/17 08:45:36;;;;;;;17.10;11.80;;;;;;;4.10;100.00;101355.13;107947;1257;60933;-68
2023/12/17 08:48:05;;;;;;;16.40;12.00;;;;;;;4.12;100.00;101359.09;107936;1255;61122;-67
2023/12/17 08:50:33;;;;;;;15.90;11.00;;;;;;;4.13;100.00;101355.95;107938;1256;74044;-67
2023/12/17 08:53:00;;;;;;;17.80;11.70;;;;;;;4.15;100.00;101349.39;108002;1257;71897;-67
2023/12/17 08:55:28;;;;;;;17.80;11.30;;;;;;;4.16;100.00;101348.09;107938;1256;71647;-68
2023/12/17 08:57:55;;;;;;;13.60;10.30;;;;;;;4.18;100.00;101344.84;107977;1256;61205;-68
2023/12/17 09:00:23;;;;;;;15.00;10.60;;;;;;;4.16;100.00;101347.31;108074;1256;63062;-67
2023/12/17 09:02:52;;;;;;;15.30;10.60;;;;;;;4.13;100.00;101342.29;108049;1257;73385;-67
2023/12/17 09:05:20;;;;;;;16.20;11.00;;;;;;;4.12;100.00;101340.73;107935;1257;71559;-68
2023/12/17 09:07:47;;;;;;;15.10;11.00;;;;;;;4.09;100.00;101337.72;107950;1255;71371;-67
2023/12/17 09:10:15;;;;;;;15.30;10.30;;;;;;;4.07;100.00;101332.25;108025;1256;60415;-67
2023/12/17 09:12:43;;;;;;;18.60;11.40;;;;;;;4.09;100.00;101330.96;108097;1257;61192;-68
2023/12/17 09:15:10;;;;;;;15.20;10.90;;;;;;;4.09;100.00;101333.41;108022;1256;74680;-69
2023/12/17 09:17:42;;;;;;;16.90;11.30;;;;;;;4.10;100.00;101332.02;108080;1255;72655;-68
2023/12/17 09:20:10;;;;;;;;;;;;;;;4.12;100.00;101334.22;108060;1256;71431;-68
2023/12/17 09:22:38;;;;;;;14.70;9.40;;;;;;;4.11;100.00;101334.63;108101;1257;61335;-68
2023/12/17 09:25:07;;;;;;;12.60;9.40;;;;;;;4.11;100.00;101334.38;107987;1256;61397;-68
2023/12/17 09:27:34;;;;;;;14.40;9.50;;;;;;;4.10;100.00;101335.32;107973;1256;73329;-67
2023/12/17 09:30:03;;;;;;;13.20;8.80;;;;;;;4.10;100.00;101338.05;108035;1257;72696;-69
2023/12/17 09:32:31;;;;;;;11.90;8.50;;;;;;;4.08;100.00;101330.27;107993;1257;71072;-68
2023/12/17 09:34:59;;;;;;;11.00;8.10;;;;;;;4.10;100.00;101330.64;107929;1256;61355;-69
2023/12/17 09:37:27;;;;;;;13.00;9.60;;;;;;;4.11;100.00;101331.17;107984;1257;61108;-67
2023/12/17 09:39:54;;;;;;;12.30;8.30;;;;;;;4.12;100.00;101325.81;107896;1256;74681;-67
2023/12/17 09:42:22;;;;;;;10.90;8.10;;;;;;;4.08;100.00;101323.42;108072;1255;71454;-67
2023/12/17 09:44:49;;;;;;;12.30;8.20;;;;;;;4.09;100.00;101316.64;107951;1256;70525;-69
2023/12/17 09:47:17;;;;;;;12.90;8.60;;;;;;;4.09;100.00;101324.05;107850;1256;61155;-67
2023/12/17 09:49:46;;;;;;;12.10;8.40;;;;;;;4.07;100.00;101321.75;108048;1257;61107;-69
2023/12/17 09:52:13;;;;;;;10.50;7.80;;;;;;;4.07;100.00;101322.04;108005;1257;73366;-68
2023/12/17 09:54:42;;;;;;;11.90;8.40;;;;;;;4.04;100.00;101320.03;107851;1256;72882;-68
2023/12/17 09:57:10;;;;;;;10.80;7.70;;;;;;;4.04;100.00;101314.05;107849;1255;72517;-69
2023/12/17 09:59:37;;;;;;;12.00;8.10;;;;;;;4.05;100.00;101315.52;108028;1256;59918;-69
2023/12/17 10:02:06;;;;;;;10.70;7.70;;;;;;;4.07;100.00;101319.16;108133;1256;59888;-69
2023/12/17 10:04:34;;;;;;;10.50;8.10;;;;;;;4.08;100.00;101318.47;107835;1255;75777;-69
2023/12/17 10:07:02;;;;;;;12.50;8.70;;;;;;;4.11;100.00;101319.58;108154;1255;72707;-69
2023/12/17 10:09:31;;;;;;;12.50;8.10;;;;;;;4.13;100.00;101313.81;107925;1256;72440;-68
2023/12/17 10:11:59;;;;;;;11.10;7.80;;;;;;;4.15;100.00;101318.14;108144;1256;61256;-70
2023/12/17 10:14:30;;;;;;;12.70;8.60;;;;;;;4.18;100.00;101318.98;108025;1256;61233;-70
2023/12/17 10:16:58;;;;;;;12.70;8.90;;;;;;;4.21;100.00;101312.10;107906;1257;77270;-68
2023/12/17 10:19:26;;;;;;;11.30;8.30;;;;;;;4.21;100.00;101317.40;108141;1257;70435;-70
2023/12/17 10:21:56;;;;;;;13.20;8.90;;;;;;;4.21;100.00;101306.09;108014;1256;71307;-71
2023/12/17 10:24:43;;;;;;;13.00;8.50;;;;;;;4.22;100.00;101300.77;107995;1257;61129;-69
2023/12/17 10:27:19;;;;;;;13.40;7.90;;;;;;;4.25;100.00;101302.45;108002;1256;61138;-70
2023/12/17 10:29:51;;;;;;;12.70;8.20;;;;;;;4.26;100.00;101301.56;107986;1257;74690;-69
2023/12/17 10:32:21;;;;;;;;;;;;;;;4.27;100.00;101292.98;108112;1257;71781;-69
2023/12/17 10:34:50;;;;;;;11.20;8.30;;;;;;;4.29;100.00;101298.36;108109;1257;72793;-70
2023/12/17 10:37:19;;;;;;;12.20;7.60;;;;;;;4.30;100.00;101292.23;107989;1257;61111;-68
2023/12/17 10:39:51;;;;;;;11.70;7.60;;;;;;;4.33;100.00;101287.48;108082;1257;60043;-69
2023/12/17 10:42:19;;;;;;;13.00;8.00;;;;;;;4.33;100.00;101291.50;108017;1255;74691;-69
2023/12/17 10:44:49;;;;;;;11.40;7.40;;;;;;;4.32;100.00;101283.48;108064;1257;72745;-68
2023/12/17 10:47:19;;;;;;;11.30;7.50;;;;;;;4.32;100.00;101287.02;108375;1256;72626;-70
2023/12/17 10:49:47;;;;;;;10.70;7.40;;;;;;;4.32;100.00;101288.08;108037;1257;61100;-70
2023/12/17 10:52:15;;;;;;;12.70;7.80;;;;;;;4.31;100.00;101284.50;107975;1257;61229;-69
2023/12/17 10:54:43;;;;;;;12.10;7.10;;;;;;;4.32;100.00;101284.05;107890;1257;73376;-68
2023/12/17 10:57:15;;;;;;;11.30;6.90;;;;;;;4.34;100.00;101283.80;107932;1256;71463;-68
2023/12/17 10:59:44;;;;;;;11.00;7.10;;;;;;;4.34;100.00;101284.45;108065;1256;71093;-69
2023/12/17 11:02:13;;;;;;;11.60;6.90;;;;;;;4.35;100.00;101287.40;107700;1257;61390;-69
2023/12/17 11:04:45;;;;;;;12.30;7.80;;;;;;;4.36;100.00;101293.70;108113;1257;61350;-67
2023/12/17 11:07:17;;;;;;;9.80;6.50;;;;;;;4.36;100.00;101290.36;108002;1257;74385;-68
2023/12/17 11:10:01;;;;;;;9.30;6.00;;;;;;;4.38;100.00;101300.59;107876;1257;72936;-69
2023/12/17 11:12:29;;;;;;;10.20;6.50;;;;;;;4.40;100.00;101300.64;108065;1256;74456;-69
2023/12/17 11:14:58;;;;;;;8.60;5.80;;;;;;;4.41;100.00;101284.65;108060;1255;61685;-68
2023/12/17 11:17:27;;;;;;;9.10;6.10;;;;;;;4.41;100.00;101286.60;108346;1257;61301;-70